createdAt,value
2023-01-27T00:01:35.765Z,96140.72
2023-01-27T00:04:04.800Z,96131.63
2023-01-27T00:06:32.827Z,96136.56
2023-01-27T00:09:00.725Z,96139.47
2023-01-27T00:11:45.968Z,96144.91
2023-01-27T00:14:15.281Z,96128.91
2023-01-27T00:16:43.196Z,96140.88
2023-01-27T00:19:11.137Z,96139.94
2023-01-27T00:21:56.554Z,96146.63
2023-01-27T00:24:39.547Z,96143.28
2023-01-27T00:27:09.398Z,96149.81
2023-01-27T00:29:39.304Z,96140.72
2023-01-27T00:32:25.257Z,96144.56
2023-01-27T00:34:53.163Z,96135.59
2023-01-27T00:37:21.570Z,96137.53
2023-01-27T00:39:49.432Z,96134.94
2023-01-27T00:42:17.355Z,96131.94
2023-01-27T00:45:07.060Z,96130.66
2023-01-27T00:47:34.971Z,96133.84
2023-01-27T00:50:02.935Z,96138.31
2023-01-27T00:52:30.813Z,96135.63
2023-01-27T00:54:58.717Z,96131.94
2023-01-27T00:57:26.911Z,96134.16
2023-01-27T00:59:56.625Z,96133.53
2023-01-27T01:02:25.663Z,96136.72
2023-01-27T01:04:53.551Z,96133.53
2023-01-27T01:07:21.423Z,96132.25
2023-01-27T01:09:49.312Z,96133.53
2023-01-27T01:12:17.236Z,96139.28
2023-01-27T01:14:45.176Z,96137.22
2023-01-27T01:17:14.452Z,96138.31
2023-01-27T01:19:42.353Z,96142.19
2023-01-27T01:22:10.230Z,96148.22
2023-01-27T01:24:38.108Z,96146.31
2023-01-27T01:27:05.972Z,96155.59
2023-01-27T01:29:33.850Z,96139.28
2023-01-27T01:32:01.711Z,96148.06
2023-01-27T01:34:31.073Z,96145.34
2023-01-27T01:36:58.936Z,96146.47
2023-01-27T01:39:26.846Z,96134.78
2023-01-27T01:41:54.757Z,96145.94
2023-01-27T01:44:24.561Z,96130.75
2023-01-27T01:46:52.539Z,96131.56
2023-01-27T01:49:25.149Z,96131.03
2023-01-27T01:51:58.963Z,96139.34
2023-01-27T01:54:32.163Z,96135.50
2023-01-27T01:57:07.283Z,96135.56
2023-01-27T01:59:42.189Z,96133.16
2023-01-27T02:02:14.513Z,96121.50
2023-01-27T02:04:49.391Z,96127.75
2023-01-27T02:07:26.803Z,96122.31
2023-01-27T02:09:58.671Z,96111.03
2023-01-27T02:12:26.593Z,96120.75
2023-01-27T02:14:55.551Z,96124.44
2023-01-27T02:17:24.018Z,96126.34
2023-01-27T02:20:05.173Z,96130.03
2023-01-27T02:22:45.045Z,96121.06
2023-01-27T02:25:30.580Z,96128.41
2023-01-27T02:27:59.810Z,96120.91
2023-01-27T02:30:28.342Z,96124.91
2023-01-27T02:32:56.290Z,96132.38
2023-01-27T02:35:34.978Z,96128.25
2023-01-27T02:38:03.964Z,96122.16
2023-01-27T02:40:34.708Z,96124.25
2023-01-27T02:43:06.322Z,96126.94
2023-01-27T02:45:34.237Z,96114.34
2023-01-27T02:48:02.372Z,96109.03
2023-01-27T02:50:30.841Z,96114.16
2023-01-27T02:52:58.769Z,96115.72
2023-01-27T02:55:26.728Z,96109.88
2023-01-27T02:57:54.601Z,96105.38
2023-01-27T03:00:24.173Z,96104.44
2023-01-27T03:02:52.007Z,96118.94
2023-01-27T03:05:19.864Z,96111.44
2023-01-27T03:07:47.764Z,96122.00
2023-01-27T03:10:15.722Z,96118.16
2023-01-27T03:12:45.690Z,96126.78
2023-01-27T03:15:31.050Z,96129.34
2023-01-27T03:18:16.144Z,96132.22
2023-01-27T03:20:46.586Z,96126.81
2023-01-27T03:23:15.599Z,96127.91
2023-01-27T03:25:44.482Z,96118.19
2023-01-27T03:28:13.311Z,96119.31
2023-01-27T03:30:41.692Z,96120.72
2023-01-27T03:33:11.074Z,96126.50
2023-01-27T03:35:48.402Z,96125.53
2023-01-27T03:38:35.072Z,96118.34
2023-01-27T03:41:22.424Z,96125.34
2023-01-27T03:44:08.450Z,96130.31
2023-01-27T03:46:36.900Z,96136.19
2023-01-27T03:49:06.135Z,96138.16
2023-01-27T03:51:33.992Z,96129.50
2023-01-27T03:54:02.002Z,96137.19
2023-01-27T03:56:29.836Z,96133.66
2023-01-27T03:58:57.857Z,96128.97
2023-01-27T04:01:25.761Z,96127.72
2023-01-27T04:04:11.426Z,96133.47
2023-01-27T04:06:56.432Z,96129.66
2023-01-27T04:09:27.089Z,96134.34
2023-01-27T04:11:55.201Z,96128.53
2023-01-27T04:14:25.161Z,96127.56
2023-01-27T04:16:54.731Z,96128.19
2023-01-27T04:19:22.763Z,96122.00
2023-01-27T04:21:52.041Z,96129.63
2023-01-27T04:24:23.829Z,96125.03
2023-01-27T04:26:55.874Z,96123.28
2023-01-27T04:29:25.821Z,96107.66
2023-01-27T04:31:54.357Z,96129.50
2023-01-27T04:34:22.561Z,96129.34
2023-01-27T04:36:52.300Z,96127.91
2023-01-27T04:39:20.522Z,96131.75
2023-01-27T04:41:49.120Z,96126.34
2023-01-27T04:44:17.115Z,96116.31
2023-01-27T04:46:44.953Z,96123.63
2023-01-27T04:49:13.239Z,96126.19
2023-01-27T04:51:41.103Z,96126.19
2023-01-27T04:54:10.486Z,96136.19
2023-01-27T04:56:41.199Z,96142.28
2023-01-27T04:59:13.983Z,96138.59
2023-01-27T05:01:41.894Z,96132.38
2023-01-27T05:04:09.867Z,96139.41
2023-01-27T05:06:37.746Z,96129.00
2023-01-27T05:09:05.598Z,96132.50
2023-01-27T05:11:34.832Z,96140.31
2023-01-27T05:14:02.732Z,96130.72
2023-01-27T05:16:30.864Z,96134.25
2023-01-27T05:18:58.796Z,96129.00
2023-01-27T05:21:29.020Z,96141.13
2023-01-27T05:23:56.928Z,96148.63
2023-01-27T05:26:27.255Z,96153.59
2023-01-27T05:28:58.992Z,96147.97
2023-01-27T05:31:29.016Z,96142.09
2023-01-27T05:33:59.788Z,96136.00
2023-01-27T05:36:28.693Z,96131.47
2023-01-27T05:38:57.755Z,96137.38
2023-01-27T05:41:26.425Z,96150.50
2023-01-27T05:43:57.041Z,96151.34
2023-01-27T05:46:27.319Z,96152.28
2023-01-27T05:48:57.056Z,96157.09
2023-01-27T05:51:28.022Z,96160.72
2023-01-27T05:53:56.032Z,96163.94
2023-01-27T05:56:26.359Z,96173.84
2023-01-27T05:58:55.345Z,96170.50
2023-01-27T06:01:26.841Z,96163.81
2023-01-27T06:03:54.905Z,96173.72
2023-01-27T06:06:25.959Z,96166.03
2023-01-27T06:08:54.355Z,96169.41
2023-01-27T06:11:24.303Z,96171.31
2023-01-27T06:13:53.533Z,96181.34
2023-01-27T06:16:25.054Z,96186.97
2023-01-27T06:18:53.102Z,96188.09
2023-01-27T06:21:21.376Z,96189.84
2023-01-27T06:23:50.217Z,96178.50
2023-01-27T06:26:20.068Z,96176.28
2023-01-27T06:28:48.213Z,96187.75
2023-01-27T06:31:18.994Z,96188.41
2023-01-27T06:33:49.238Z,96184.75
2023-01-27T06:36:20.763Z,96184.28
2023-01-27T06:38:50.017Z,96182.53
2023-01-27T06:41:18.053Z,96184.59
2023-01-27T06:43:45.951Z,96193.06
2023-01-27T06:46:15.060Z,96191.63
2023-01-27T06:48:43.003Z,96206.81
2023-01-27T06:51:12.586Z,96203.81
2023-01-27T06:53:40.613Z,96207.78
2023-01-27T06:56:09.202Z,96209.84
2023-01-27T06:58:37.118Z,96222.28
2023-01-27T07:01:06.643Z,96216.84
2023-01-27T07:03:37.375Z,96209.53
2023-01-27T07:06:05.664Z,96210.19
2023-01-27T07:08:35.052Z,96222.47
2023-01-27T07:11:04.737Z,96229.78
2023-01-27T07:13:32.750Z,96231.41
2023-01-27T07:16:01.357Z,96235.34
2023-01-27T07:18:29.299Z,96235.34
2023-01-27T07:20:57.230Z,96225.94
2023-01-27T07:23:25.192Z,96223.38
2023-01-27T07:25:54.527Z,96234.88
2023-01-27T07:28:22.501Z,96239.22
2023-01-27T07:30:50.496Z,96247.03
2023-01-27T07:33:18.422Z,96253.63
2023-01-27T07:35:50.037Z,96264.47
2023-01-27T07:38:18.154Z,96256.81
2023-01-27T07:40:46.104Z,96263.50
2023-01-27T07:43:15.440Z,96262.69
2023-01-27T07:45:43.461Z,96253.75
2023-01-27T07:48:12.524Z,96263.31
2023-01-27T07:50:41.702Z,96247.41
2023-01-27T07:53:09.655Z,96259.53
2023-01-27T07:55:37.547Z,96262.53
2023-01-27T07:58:05.662Z,96241.94
2023-01-27T08:00:35.870Z,96245.75
2023-01-27T08:03:06.015Z,96254.72
2023-01-27T08:05:35.865Z,96254.72
2023-01-27T08:08:04.761Z,96258.69
2023-01-27T08:10:32.782Z,96254.38
2023-01-27T08:13:00.799Z,96248.47
2023-01-27T08:15:28.767Z,96246.44
2023-01-27T08:17:59.773Z,96242.41
2023-01-27T08:20:29.054Z,96253.28
2023-01-27T08:22:57.799Z,96260.34
2023-01-27T08:25:26.380Z,96254.44
2023-01-27T08:27:57.369Z,96254.91
2023-01-27T08:30:25.871Z,96248.50
2023-01-27T08:32:53.837Z,96257.44
2023-01-27T08:35:23.378Z,96259.84
2023-01-27T08:37:51.622Z,96260.66
2023-01-27T08:40:20.221Z,96250.94
2023-01-27T08:42:50.610Z,96253.66
2023-01-27T08:45:18.663Z,96252.06
2023-01-27T08:47:46.586Z,96248.88
2023-01-27T08:50:14.784Z,96250.66
2023-01-27T08:52:44.285Z,96258.63
2023-01-27T08:55:12.554Z,96249.69
2023-01-27T08:57:40.531Z,96245.94
2023-01-27T09:00:12.616Z,96253.66
2023-01-27T09:02:41.315Z,96239.41
2023-01-27T09:05:09.591Z,96244.66
2023-01-27T09:07:38.035Z,96253.94
2023-01-27T09:10:14.491Z,96253.28
2023-01-27T09:12:43.691Z,96250.56
2023-01-27T09:15:12.238Z,96253.94
2023-01-27T09:17:40.125Z,96245.94
2023-01-27T09:20:09.277Z,96256.06
2023-01-27T09:22:40.170Z,96261.78
2023-01-27T09:25:14.587Z,96257.09
2023-01-27T09:27:42.561Z,96265.44
2023-01-27T09:30:12.901Z,96266.09
2023-01-27T09:32:41.047Z,96283.38
2023-01-27T09:35:10.491Z,96284.59
2023-01-27T09:37:47.060Z,96298.81
2023-01-27T09:40:31.292Z,96307.13
2023-01-27T09:43:32.649Z,96301.66
2023-01-27T09:46:24.969Z,96294.47
2023-01-27T09:49:24.143Z,96301.53
2023-01-27T09:52:11.236Z,96297.06
2023-01-27T09:54:54.347Z,96308.75
2023-01-27T09:57:39.525Z,96308.41
2023-01-27T10:00:27.690Z,96323.44
2023-01-27T10:03:18.512Z,96310.78
2023-01-27T10:06:10.962Z,96298.97
2023-01-27T10:09:00.296Z,96291.03
2023-01-27T10:11:39.786Z,96295.06
2023-01-27T10:14:25.067Z,96312.22
2023-01-27T10:17:12.837Z,96315.91
2023-01-27T10:19:55.842Z,96315.78
2023-01-27T10:22:42.803Z,96314.50
2023-01-27T10:25:30.263Z,96309.56
2023-01-27T10:28:01.584Z,96311.22
2023-01-27T10:30:35.884Z,96321.78
2023-01-27T10:33:17.531Z,96313.00
2023-01-27T10:35:53.345Z,96310.28
2023-01-27T10:38:38.000Z,96314.47
2023-01-27T10:41:23.352Z,96314.97
2023-01-27T10:44:07.430Z,96307.91
2023-01-27T10:46:50.109Z,96301.34
2023-01-27T10:49:25.637Z,96306.75
2023-01-27T10:51:59.952Z,96302.41
2023-01-27T10:54:35.452Z,96310.59
2023-01-27T10:57:11.085Z,96318.44
2023-01-27T11:00:10.920Z,96292.22
2023-01-27T11:02:47.323Z,96303.75
2023-01-27T11:05:23.783Z,96307.91
2023-01-27T11:08:00.512Z,96293.06
2023-01-27T11:10:37.842Z,96304.09
2023-01-27T11:13:08.164Z,96304.41
2023-01-27T11:15:36.477Z,96299.75
2023-01-27T11:18:14.448Z,96297.50
2023-01-27T11:20:45.812Z,96299.91
2023-01-27T11:23:19.209Z,96290.66
2023-01-27T11:25:55.262Z,96276.75
2023-01-27T11:28:37.385Z,96296.72
2023-01-27T11:31:17.840Z,96302.66
2023-01-27T11:34:03.787Z,96287.44
2023-01-27T11:36:32.470Z,96285.03
2023-01-27T11:39:01.647Z,96291.59
2023-01-27T11:41:29.582Z,96292.88
2023-01-27T11:43:57.630Z,96265.38
2023-01-27T11:46:25.940Z,96280.75
2023-01-27T11:48:59.120Z,96275.78
2023-01-27T11:51:32.857Z,96293.69
2023-01-27T11:54:10.196Z,96288.91
2023-01-27T11:56:40.700Z,96284.41
2023-01-27T11:59:15.016Z,96278.81
2023-01-27T12:01:49.380Z,96280.25
2023-01-27T12:04:27.004Z,96246.84
2023-01-27T12:07:01.534Z,96252.94
2023-01-27T12:09:35.481Z,96271.47
2023-01-27T12:12:29.887Z,96273.22
2023-01-27T12:14:59.834Z,96274.16
2023-01-27T12:17:34.809Z,96264.84
2023-01-27T12:20:18.410Z,96265.34
2023-01-27T12:22:48.826Z,96260.19
2023-01-27T12:25:24.309Z,96251.88
2023-01-27T12:27:57.818Z,96273.78
2023-01-27T12:30:30.757Z,96260.34
2023-01-27T12:33:00.692Z,96251.13
2023-01-27T12:35:34.903Z,96258.47
2023-01-27T12:38:08.269Z,96246.41
2023-01-27T12:40:41.256Z,96248.53
2023-01-27T12:43:13.981Z,96252.41
2023-01-27T12:45:43.390Z,96244.06
2023-01-27T12:48:20.953Z,96247.59
2023-01-27T12:51:04.644Z,96252.38
2023-01-27T12:53:32.861Z,96247.91
2023-01-27T12:56:11.043Z,96246.59
2023-01-27T12:58:41.817Z,96241.34
2023-01-27T13:01:24.738Z,96243.56
2023-01-27T13:03:57.494Z,96250.28
2023-01-27T13:06:43.337Z,96232.53
2023-01-27T13:09:31.982Z,96240.56
2023-01-27T13:12:03.498Z,96240.91
2023-01-27T13:14:40.761Z,96245.03
2023-01-27T13:17:30.315Z,96247.91
2023-01-27T13:20:04.214Z,96247.13
2023-01-27T13:22:42.946Z,96247.16
2023-01-27T13:25:20.277Z,96241.38
2023-01-27T13:27:51.137Z,96244.41
2023-01-27T13:30:28.850Z,96243.13
2023-01-27T13:33:03.896Z,96251.28
2023-01-27T13:35:38.382Z,96246.19
2023-01-27T13:38:18.544Z,96256.41
2023-01-27T13:40:48.605Z,96262.50
2023-01-27T13:43:24.247Z,96262.66
2023-01-27T13:45:58.406Z,96260.09
2023-01-27T13:48:33.997Z,96269.09
2023-01-27T13:51:08.997Z,96265.88
2023-01-27T13:53:40.152Z,96271.63
2023-01-27T13:56:22.255Z,96274.50
2023-01-27T13:59:06.157Z,96275.13
2023-01-27T14:01:47.754Z,96282.19
2023-01-27T14:04:42.020Z,96279.31
2023-01-27T14:07:22.840Z,96276.91
2023-01-27T14:10:16.589Z,96282.84
2023-01-27T14:13:04.307Z,96283.78
2023-01-27T14:15:41.932Z,96275.28
2023-01-27T14:18:18.080Z,96271.63
2023-01-27T14:21:11.287Z,96276.59
2023-01-27T14:23:52.178Z,96278.34
2023-01-27T14:26:42.912Z,96276.41
2023-01-27T14:29:28.249Z,96279.78
2023-01-27T14:32:08.538Z,96277.84
2023-01-27T14:34:57.404Z,96279.63
2023-01-27T14:37:33.479Z,96282.19
2023-01-27T14:40:16.640Z,96278.03
2023-01-27T14:43:01.140Z,96275.78
2023-01-27T14:45:34.703Z,96280.91
2023-01-27T14:48:17.995Z,96286.81
2023-01-27T14:51:00.619Z,96286.03
2023-01-27T14:53:48.569Z,96284.41
2023-01-27T14:56:28.769Z,96293.84
2023-01-27T14:59:08.805Z,96295.59
2023-01-27T15:01:47.484Z,96302.78
2023-01-27T15:04:37.560Z,96297.19
2023-01-27T15:07:17.326Z,96300.72
2023-01-27T15:10:04.484Z,96298.97
2023-01-27T15:12:53.967Z,96294.34
2023-01-27T15:16:01.119Z,96311.44
2023-01-27T15:18:56.380Z,96320.25
2023-01-27T15:21:50.983Z,96313.81
2023-01-27T15:24:48.641Z,96313.19
2023-01-27T15:27:16.926Z,96309.19
2023-01-27T15:29:46.904Z,96314.97
2023-01-27T15:32:28.999Z,96308.53
2023-01-27T15:35:30.309Z,96311.28
2023-01-27T15:38:01.958Z,96325.03
2023-01-27T15:40:30.039Z,96326.94
2023-01-27T15:43:06.062Z,96322.78
2023-01-27T15:45:36.259Z,96320.41
2023-01-27T15:48:12.698Z,96322.31
2023-01-27T15:50:48.431Z,96322.81
2023-01-27T15:53:24.721Z,96325.69
2023-01-27T15:55:57.073Z,96331.25
2023-01-27T15:58:35.609Z,96325.19
2023-01-27T16:01:08.746Z,96332.22
2023-01-27T16:03:48.071Z,96334.28
2023-01-27T16:06:22.136Z,96337.78
2023-01-27T16:08:53.269Z,96344.66
2023-01-27T16:11:41.322Z,96343.22
2023-01-27T16:14:39.816Z,96349.78
2023-01-27T16:17:26.595Z,96343.41
2023-01-27T16:20:13.526Z,96345.31
2023-01-27T16:22:45.386Z,96352.22
2023-01-27T16:25:25.936Z,96353.81
2023-01-27T16:28:03.254Z,96353.31
2023-01-27T16:30:36.764Z,96362.44
2023-01-27T16:33:08.510Z,96367.72
2023-01-27T16:35:49.688Z,96357.81
2023-01-27T16:38:26.537Z,96367.56
2023-01-27T16:40:58.078Z,96361.97
2023-01-27T16:43:32.877Z,96360.66
2023-01-27T16:46:02.639Z,96369.47
2023-01-27T16:48:38.302Z,96365.13
2023-01-27T16:51:16.316Z,96354.28
2023-01-27T16:53:48.564Z,96361.16
2023-01-27T16:56:24.270Z,96364.19
2023-01-27T16:58:55.464Z,96366.47
2023-01-27T17:01:29.152Z,96369.78
2023-01-27T17:04:14.147Z,96364.84
2023-01-27T17:06:49.700Z,96366.47
2023-01-27T17:09:22.595Z,96381.81
2023-01-27T17:11:50.990Z,96373.66
2023-01-27T17:14:30.306Z,96377.19
2023-01-27T17:17:02.535Z,96369.81
2023-01-27T17:19:33.884Z,96377.34
2023-01-27T17:22:10.065Z,96377.78
2023-01-27T17:24:43.372Z,96379.69
2023-01-27T17:27:24.033Z,96374.59
2023-01-27T17:30:00.501Z,96385.63
2023-01-27T17:32:33.015Z,96382.91
2023-01-27T17:35:06.134Z,96386.59
2023-01-27T17:37:43.923Z,96386.44
2023-01-27T17:40:17.147Z,96392.50
2023-01-27T17:42:45.420Z,96384.03
2023-01-27T17:45:25.453Z,96398.28
2023-01-27T17:47:54.692Z,96381.31
2023-01-27T17:50:26.255Z,96390.41
2023-01-27T17:52:57.198Z,96392.97
2023-01-27T17:55:30.978Z,96392.50
2023-01-27T17:58:07.073Z,96407.03
2023-01-27T18:00:40.164Z,96405.25
2023-01-27T18:03:16.759Z,96398.06
2023-01-27T18:05:47.246Z,96399.38
2023-01-27T18:08:18.871Z,96400.34
2023-01-27T18:10:47.322Z,96399.22
2023-01-27T18:13:38.533Z,96399.88
2023-01-27T18:16:15.982Z,96407.06
2023-01-27T18:18:44.662Z,96404.50
2023-01-27T18:21:18.439Z,96404.81
2023-01-27T18:23:49.181Z,96400.03
2023-01-27T18:26:22.712Z,96402.41
2023-01-27T18:28:56.341Z,96410.25
2023-01-27T18:31:27.772Z,96408.91
2023-01-27T18:34:01.712Z,96406.88
2023-01-27T18:36:34.622Z,96413.88
2023-01-27T18:39:03.562Z,96415.81
2023-01-27T18:41:35.424Z,96417.88
2023-01-27T18:44:04.699Z,96414.56
2023-01-27T18:46:32.578Z,96415.84
2023-01-27T18:49:00.913Z,96422.88
2023-01-27T18:51:28.774Z,96421.28
2023-01-27T18:53:56.661Z,96415.53
2023-01-27T18:56:24.503Z,96419.66
2023-01-27T18:58:54.120Z,96423.69
2023-01-27T19:01:25.136Z,96433.13
2023-01-27T19:03:57.041Z,96434.88
2023-01-27T19:06:26.294Z,96427.34
2023-01-27T19:08:54.714Z,96433.91
2023-01-27T19:11:22.671Z,96429.13
2023-01-27T19:13:50.568Z,96436.66
2023-01-27T19:16:19.203Z,96443.38
2023-01-27T19:18:48.470Z,96432.44
2023-01-27T19:21:17.423Z,96436.75
2023-01-27T19:23:45.935Z,96431.31
2023-01-27T19:26:18.063Z,96443.03
2023-01-27T19:28:48.591Z,96438.38
2023-01-27T19:31:16.746Z,96445.75
2023-01-27T19:33:45.112Z,96445.75
2023-01-27T19:36:22.346Z,96445.59
2023-01-27T19:38:56.263Z,96441.75
2023-01-27T19:41:24.215Z,96449.72
2023-01-27T19:43:52.147Z,96456.44
2023-01-27T19:46:23.155Z,96449.91
2023-01-27T19:48:51.958Z,96453.56
2023-01-27T19:51:21.467Z,96448.28
2023-01-27T19:53:49.383Z,96449.06
2023-01-27T19:56:19.396Z,96457.84
2023-01-27T19:58:51.782Z,96462.13
2023-01-27T20:01:20.707Z,96473.28
2023-01-27T20:03:48.941Z,96469.25
2023-01-27T20:06:21.333Z,96468.63
2023-01-27T20:08:55.240Z,96480.16
2023-01-27T20:11:32.087Z,96487.53
2023-01-27T20:14:01.479Z,96476.22
2023-01-27T20:16:30.375Z,96478.78
2023-01-27T20:19:00.169Z,96466.63
2023-01-27T20:21:28.710Z,96470.28
2023-01-27T20:23:58.196Z,96466.28
2023-01-27T20:26:26.919Z,96471.16
2023-01-27T20:28:54.836Z,96474.22
2023-01-27T20:31:23.595Z,96463.03
2023-01-27T20:33:51.794Z,96472.00
2023-01-27T20:36:22.593Z,96477.59
2023-01-27T20:38:51.166Z,96478.88
2023-01-27T20:41:22.361Z,96485.13
2023-01-27T20:43:55.446Z,96474.25
2023-01-27T20:46:23.729Z,96477.31
2023-01-27T20:48:51.751Z,96473.13
2023-01-27T20:51:19.662Z,96477.09
2023-01-27T20:53:47.824Z,96469.88
2023-01-27T20:56:18.139Z,96471.50
2023-01-27T20:58:48.256Z,96472.03
2023-01-27T21:01:18.752Z,96479.34
2023-01-27T21:03:47.516Z,96471.97
2023-01-27T21:06:17.744Z,96470.97
2023-01-27T21:08:47.570Z,96468.13
2023-01-27T21:11:17.726Z,96485.75
2023-01-27T21:13:47.829Z,96491.16
2023-01-27T21:16:15.840Z,96482.75
2023-01-27T21:18:44.897Z,96480.13
2023-01-27T21:21:23.233Z,96477.75
2023-01-27T21:23:51.340Z,96480.75
2023-01-27T21:26:19.456Z,96492.59
2023-01-27T21:28:48.863Z,96478.38
2023-01-27T21:31:18.706Z,96485.59
2023-01-27T21:33:47.991Z,96481.94
2023-01-27T21:36:16.159Z,96482.50
2023-01-27T21:38:44.591Z,96478.38
2023-01-27T21:41:36.641Z,96480.13
2023-01-27T21:44:24.949Z,96485.72
2023-01-27T21:46:52.856Z,96482.75
2023-01-27T21:49:20.819Z,96479.94
2023-01-27T21:51:50.194Z,96482.97
2023-01-27T21:54:18.227Z,96488.25
2023-01-27T21:56:46.160Z,96491.44
2023-01-27T21:59:15.434Z,96482.66
2023-01-27T22:01:43.341Z,96487.38
2023-01-27T22:04:11.255Z,96487.38
2023-01-27T22:06:39.167Z,96484.78
2023-01-27T22:09:07.054Z,96489.50
2023-01-27T22:11:34.932Z,96492.53
2023-01-27T22:14:02.811Z,96493.69
2023-01-27T22:16:32.124Z,96497.16
2023-01-27T22:19:00.011Z,96496.66
2023-01-27T22:21:27.900Z,96489.13
2023-01-27T22:23:55.823Z,96495.75
2023-01-27T22:26:23.716Z,96487.13
2023-01-27T22:28:51.613Z,96491.13
2023-01-27T22:31:19.490Z,96481.81
2023-01-27T22:33:48.819Z,96492.22
2023-01-27T22:36:16.659Z,96489.97
2023-01-27T22:38:44.534Z,96491.81
2023-01-27T22:41:12.501Z,96491.81
2023-01-27T22:43:40.372Z,96492.28
2023-01-27T22:46:08.374Z,96481.94
2023-01-27T22:48:36.290Z,96500.94
2023-01-27T22:51:06.985Z,96491.34
2023-01-27T22:53:35.391Z,96480.78
2023-01-27T22:56:04.770Z,96486.91
2023-01-27T22:58:33.630Z,96480.22
2023-01-27T23:01:01.581Z,96473.19
2023-01-27T23:03:29.540Z,96490.81
2023-01-27T23:05:57.367Z,96476.13
2023-01-27T23:08:26.585Z,96485.22
2023-01-27T23:10:54.431Z,96490.81
2023-01-27T23:13:22.324Z,96494.63
2023-01-27T23:15:50.183Z,96499.44
2023-01-27T23:18:18.048Z,96493.69
2023-01-27T23:20:46.155Z,96490.97
2023-01-27T23:23:14.905Z,96485.22
2023-01-27T23:25:45.930Z,96482.00
2023-01-27T23:28:14.791Z,96488.66
2023-01-27T23:30:44.208Z,96475.28
2023-01-27T23:33:12.886Z,96464.72
2023-01-27T23:35:40.946Z,96473.69
2023-01-27T23:38:22.619Z,96475.91
2023-01-27T23:41:01.513Z,96480.75
2023-01-27T23:43:30.895Z,96483.31
2023-01-27T23:45:59.392Z,96481.56
2023-01-27T23:48:27.862Z,96484.91
2023-01-27T23:50:56.023Z,96483.31
2023-01-27T23:53:24.024Z,96479.28
2023-01-27T23:56:00.474Z,96485.22
2023-01-27T23:58:28.930Z,96472.72
